Terminal Aerodrome Forecast
Issued by NWS

Home | Current Version | Previous Version | Text Only | Print | Product List | Glossary Off
Versions: 1 2 3 4 5 6 7 8 9 10 11 12 13 14 15

000
FTUS43 KBIS 160521
TAFMOT
TAF
KMOT 160521Z 1606/1706 22009KT P6SM SCT200
     FM161100 22013KT P6SM SCT200 WS020/25030KT
     FM161500 23014KT P6SM SCT200 WS020/28035KT
     FM161600 24013KT P6SM FEW250
     FM161900 27017KT P6SM FEW250
     FM162300 27009KT P6SM SKC=

USA.gov is the U.S. government's official web portal to all federal, state and local government web resources and services.